Time;durP1;ratioP1;P1;durP2;ratioP2;P2;SDS_P1;SDS_P2;PMS_P1;PMS_P2;Temp;Humidity;BMP_temperature;BMP_pressure;BME280_temperature;BME280_humidity;BME280_pressure;Samples;Min_cycle;Max_cycle;Signal;HPM_P1;HPM_P2
2022/10/21 00:01:48;;;;;;;6.25;4.63;;;;;;;;;;5039348;28;20023;-81
2022/10/21 00:04:14;;;;;;;6.57;4.28;;;;;;;;;;5041461;28;20120;-81
2022/10/21 00:06:40;;;;;;;6.80;4.63;;;;;;;;;;5036077;28;20108;-80
2022/10/21 00:09:06;;;;;;;6.57;4.15;;;;;;;;;;5032834;28;20021;-80
2022/10/21 00:11:32;;;;;;;6.68;4.07;;;;;;;;;;5034368;28;20029;-80
2022/10/21 00:13:58;;;;;;;4.97;4.38;;;;;;;;;;5030292;28;20064;-81
2022/10/21 00:16:24;;;;;;;6.15;4.53;;;;;;;;;;5033413;28;20395;-81
2022/10/21 00:18:50;;;;;;;6.45;4.20;;;;;;;;;;5034139;28;20049;-81
2022/10/21 00:21:18;;;;;;;5.90;4.05;;;;;;;;;;5037728;28;20059;-81
2022/10/21 00:23:44;;;;;;;;;;;;;;;;;;5039818;28;20104;-80
2022/10/21 00:26:11;;;;;;;5.13;3.92;;;;;;;;;;5034076;28;19956;-79
2022/10/21 00:28:37;;;;;;;4.43;3.50;;;;;;;;;;5033589;28;20470;-80
2022/10/21 00:31:05;;;;;;;6.50;4.32;;;;;;;;;;5033355;28;20359;-81
2022/10/21 00:33:31;;;;;;;5.70;3.85;;;;;;;;;;5033019;28;20041;-82
2022/10/21 00:36:01;;;;;;;4.82;3.58;;;;;;;;;;5030049;28;20490;-81
2022/10/21 00:38:27;;;;;;;4.78;3.35;;;;;;;;;;5032772;28;20025;-80
2022/10/21 00:40:53;;;;;;;4.70;4.00;;;;;;;;;;5032680;28;20028;-82
2022/10/21 00:43:20;;;;;;;4.78;3.80;;;;;;;;;;5028920;28;20549;-80
2022/10/21 00:45:47;;;;;;;4.93;3.60;;;;;;;;;;5032794;28;20033;-79
2022/10/21 00:48:32;;;;;;;5.63;3.67;;;;;;;;;;5026846;28;20079;-80
2022/10/21 00:51:06;;;;;;;5.85;3.35;;;;;;;;;;5031975;28;20445;-80
2022/10/21 00:53:33;;;;;;;6.43;4.18;;;;;;;;;;5031465;28;20503;-80
2022/10/21 00:55:59;;;;;;;;;;;;;;;;;;5032988;28;20425;-80
2022/10/21 00:58:28;;;;;;;7.47;3.50;;;;;;;;;;5031257;28;19951;-80
2022/10/21 01:00:55;;;;;;;5.55;2.97;;;;;;;;;;5032380;28;20029;-79
2022/10/21 01:03:23;;;;;;;5.38;3.33;;;;;;;;;;5032068;28;20022;-81
2022/10/21 01:05:49;;;;;;;6.47;3.03;;;;;;;;;;5032386;28;20025;-79
2022/10/21 01:08:16;;;;;;;4.13;2.92;;;;;;;;;;5032944;28;20036;-80
2022/10/21 01:10:42;;;;;;;3.67;2.85;;;;;;;;;;5033596;28;20121;-80
2022/10/21 01:13:26;;;;;;;5.07;3.15;;;;;;;;;;5036728;28;20044;-80
2022/10/21 01:16:02;;;;;;;6.43;3.45;;;;;;;;;;5032575;28;20552;-80
2022/10/21 01:18:47;;;;;;;3.85;3.17;;;;;;;;;;5031584;28;20382;-82
2022/10/21 01:21:16;;;;;;;4.47;3.17;;;;;;;;;;5031607;28;20080;-80
2022/10/21 01:24:02;;;;;;;6.93;3.28;;;;;;;;;;5032226;28;20057;-80
2022/10/21 01:26:44;;;;;;;3.85;3.20;;;;;;;;;;5036399;28;20021;-80
2022/10/21 01:29:24;;;;;;;7.32;3.13;;;;;;;;;;5036564;28;20478;-81
2022/10/21 01:31:54;;;;;;;4.85;3.05;;;;;;;;;;5036456;28;20035;-80
2022/10/21 01:34:28;;;;;;;3.72;3.03;;;;;;;;;;5036777;28;20074;-80
2022/10/21 01:36:56;;;;;;;4.75;3.63;;;;;;;;;;5036335;28;20021;-80
2022/10/21 01:39:33;;;;;;;3.83;3.20;;;;;;;;;;5036190;28;20038;-81
2022/10/21 01:42:23;;;;;;;5.25;3.17;;;;;;;;;;5035679;28;20032;-80
2022/10/21 01:44:59;;;;;;;4.70;2.72;;;;;;;;;;5028575;28;20495;-81
2022/10/21 01:47:29;;;;;;;5.68;3.85;;;;;;;;;;5035695;28;20032;-80
2022/10/21 01:49:57;;;;;;;4.95;2.95;;;;;;;;;;5035469;28;20131;-79
2022/10/21 01:52:24;;;;;;;4.13;3.67;;;;;;;;;;5035944;28;20029;-82
2022/10/21 01:54:54;;;;;;;5.15;2.95;;;;;;;;;;5036225;28;20049;-80
2022/10/21 01:57:22;;;;;;;3.58;2.60;;;;;;;;;;5041636;28;20071;-80
2022/10/21 01:59:49;;;;;;;4.68;3.47;;;;;;;;;;5037903;28;20390;-81
2022/10/21 02:02:16;;;;;;;4.00;2.83;;;;;;;;;;5035360;28;20037;-79
2022/10/21 02:04:44;;;;;;;4.82;3.10;;;;;;;;;;5035714;28;20041;-79
2022/10/21 02:07:10;;;;;;;4.35;2.60;;;;;;;;;;5035836;28;20014;-81
2022/10/21 02:09:36;;;;;;;3.78;2.70;;;;;;;;;;5034309;28;20032;-79
2022/10/21 02:12:03;;;;;;;3.75;2.47;;;;;;;;;;5034711;28;20107;-82
2022/10/21 02:14:32;;;;;;;3.55;2.53;;;;;;;;;;5034959;28;20414;-81
2022/10/21 02:16:59;;;;;;;3.40;2.88;;;;;;;;;;5034832;28;20075;-81
2022/10/21 02:19:25;;;;;;;4.45;2.25;;;;;;;;;;5032057;28;20029;-81
2022/10/21 02:21:53;;;;;;;5.18;3.20;;;;;;;;;;5035033;28;20081;-80
2022/10/21 02:24:18;;;;;;;;;;;;;;;;;;5023661;28;20075;-81
2022/10/21 02:26:45;;;;;;;3.85;3.20;;;;;;;;;;5035021;28;19913;-82
2022/10/21 02:29:12;;;;;;;5.95;3.20;;;;;;;;;;5033468;28;20360;-81
2022/10/21 02:31:56;;;;;;;5.10;3.00;;;;;;;;;;5035340;28;20029;-80
2022/10/21 02:34:41;;;;;;;3.47;2.83;;;;;;;;;;5035226;28;20398;-82
2022/10/21 02:37:08;;;;;;;6.70;2.72;;;;;;;;;;5031204;28;20382;-82
2022/10/21 02:39:38;;;;;;;8.38;3.17;;;;;;;;;;5017705;28;20566;-80
2022/10/21 02:42:06;;;;;;;5.65;3.33;;;;;;;;;;5033591;28;20025;-82
2022/10/21 02:44:33;;;;;;;3.67;3.03;;;;;;;;;;5039190;28;20022;-81
2022/10/21 02:46:59;;;;;;;6.03;3.37;;;;;;;;;;5035457;28;20021;-81
2022/10/21 02:49:25;;;;;;;4.68;3.10;;;;;;;;;;5035165;28;20050;-82
2022/10/21 02:51:51;;;;;;;3.78;2.88;;;;;;;;;;5034953;28;20025;-81
2022/10/21 02:54:17;;;;;;;4.53;3.45;;;;;;;;;;5035217;28;20394;-82
2022/10/21 02:56:43;;;;;;;3.92;3.28;;;;;;;;;;5034978;28;20024;-82
2022/10/21 02:59:10;;;;;;;5.05;3.95;;;;;;;;;;5035207;28;20096;-82
2022/10/21 03:01:36;;;;;;;3.70;3.00;;;;;;;;;;5033613;28;20108;-81
2022/10/21 03:04:02;;;;;;;4.07;3.17;;;;;;;;;;5039134;28;20053;-80
2022/10/21 03:06:28;;;;;;;7.80;3.25;;;;;;;;;;5039718;28;20021;-82
2022/10/21 03:08:54;;;;;;;4.75;3.17;;;;;;;;;;5034216;28;20038;-80
2022/10/21 03:11:20;;;;;;;4.85;3.45;;;;;;;;;;5034297;28;20025;-82
2022/10/21 03:13:46;;;;;;;5.32;3.17;;;;;;;;;;5034338;28;20030;-81
2022/10/21 03:16:12;;;;;;;7.65;3.65;;;;;;;;;;5032425;28;20110;-81
2022/10/21 03:18:38;;;;;;;4.07;3.30;;;;;;;;;;5032844;28;20071;-79
2022/10/21 03:21:05;;;;;;;6.65;3.80;;;;;;;;;;5032809;28;20029;-79
2022/10/21 03:23:31;;;;;;;4.53;3.00;;;;;;;;;;5030168;28;20034;-80
2022/10/21 03:25:57;;;;;;;5.00;3.97;;;;;;;;;;5034400;28;20018;-80
2022/10/21 03:28:23;;;;;;;7.35;3.53;;;;;;;;;;5034297;28;20023;-82
2022/10/21 03:30:49;;;;;;;5.35;3.42;;;;;;;;;;5032814;28;20014;-80
2022/10/21 03:33:15;;;;;;;10.35;4.07;;;;;;;;;;5033838;28;20368;-82
2022/10/21 03:35:41;;;;;;;4.72;3.70;;;;;;;;;;5034159;28;20027;-81
2022/10/21 03:38:07;;;;;;;8.40;4.18;;;;;;;;;;5033351;28;20029;-80
2022/10/21 03:40:34;;;;;;;7.07;3.78;;;;;;;;;;5034249;28;20013;-80
2022/10/21 03:43:00;;;;;;;10.00;5.25;;;;;;;;;;5026109;28;20029;-83
2022/10/21 03:45:26;;;;;;;6.70;4.70;;;;;;;;;;5034085;28;20017;-81
2022/10/21 03:47:52;;;;;;;10.05;4.75;;;;;;;;;;5034418;28;20025;-80
2022/10/21 03:50:18;;;;;;;7.82;4.63;;;;;;;;;;5040526;28;20542;-81
2022/10/21 03:52:54;;;;;;;8.23;4.63;;;;;;;;;;5041647;28;20371;-84
2022/10/21 03:55:22;;;;;;;7.90;4.32;;;;;;;;;;5035219;28;20040;-82
2022/10/21 03:57:49;;;;;;;6.05;3.90;;;;;;;;;;5034311;28;20410;-82
2022/10/21 04:00:15;;;;;;;7.85;4.40;;;;;;;;;;5034145;28;20021;-81
2022/10/21 04:02:41;;;;;;;7.40;4.50;;;;;;;;;;5033235;28;20061;-80
2022/10/21 04:05:08;;;;;;;6.47;4.30;;;;;;;;;;5033346;28;20053;-80
2022/10/21 04:07:34;;;;;;;6.88;3.90;;;;;;;;;;5032209;28;20060;-80
2022/10/21 04:10:00;;;;;;;7.32;4.00;;;;;;;;;;5033288;28;20029;-81
2022/10/21 04:12:26;;;;;;;5.05;4.07;;;;;;;;;;5019935;28;20078;-79
2022/10/21 04:14:52;;;;;;;6.22;4.47;;;;;;;;;;5033847;28;20037;-81
2022/10/21 04:17:18;;;;;;;5.25;4.10;;;;;;;;;;5038199;28;20067;-80
2022/10/21 04:19:44;;;;;;;8.38;4.10;;;;;;;;;;5033528;28;20033;-80
2022/10/21 04:22:11;;;;;;;6.90;3.83;;;;;;;;;;5020896;28;20030;-81
2022/10/21 04:24:37;;;;;;;4.78;3.75;;;;;;;;;;5033295;28;20021;-81
2022/10/21 04:27:03;;;;;;;4.90;3.60;;;;;;;;;;5032956;28;20447;-80
2022/10/21 04:29:29;;;;;;;5.75;3.72;;;;;;;;;;5032296;28;20097;-82
2022/10/21 04:31:55;;;;;;;4.47;3.50;;;;;;;;;;5033271;28;20026;-81
2022/10/21 04:34:21;;;;;;;4.50;3.72;;;;;;;;;;5032641;28;20039;-83
2022/10/21 04:36:47;;;;;;;9.10;4.43;;;;;;;;;;5033054;28;20418;-81
2022/10/21 04:39:14;;;;;;;6.53;3.75;;;;;;;;;;5033203;28;20059;-82
2022/10/21 04:41:40;;;;;;;7.28;4.43;;;;;;;;;;5034255;28;20033;-82
2022/10/21 04:44:06;;;;;;;5.55;3.17;;;;;;;;;;5032809;28;20029;-81
2022/10/21 04:46:32;;;;;;;12.32;7.13;;;;;;;;;;5033375;28;20022;-82
2022/10/21 04:48:59;;;;;;;10.50;6.60;;;;;;;;;;5039261;28;20085;-82
2022/10/21 04:51:25;;;;;;;6.40;3.55;;;;;;;;;;5043307;28;20065;-80
2022/10/21 04:53:51;;;;;;;4.82;3.80;;;;;;;;;;5032368;28;20064;-83
2022/10/21 04:56:17;;;;;;;6.78;3.72;;;;;;;;;;5039227;28;20018;-81
2022/10/21 04:58:43;;;;;;;6.03;3.90;;;;;;;;;;5039336;28;20048;-82
2022/10/21 05:01:09;;;;;;;6.40;3.83;;;;;;;;;;5036703;28;20443;-83
2022/10/21 05:03:35;;;;;;;5.82;2.85;;;;;;;;;;5033326;28;20100;-81
2022/10/21 05:06:01;;;;;;;6.80;3.58;;;;;;;;;;5032614;28;20061;-82
2022/10/21 05:08:27;;;;;;;6.38;3.95;;;;;;;;;;5032084;28;20044;-83
2022/10/21 05:10:58;;;;;;;4.50;3.75;;;;;;;;;;5034215;28;20255;-83
2022/10/21 05:13:24;;;;;;;8.38;3.55;;;;;;;;;;5032198;28;20034;-83
2022/10/21 05:15:50;;;;;;;6.07;3.90;;;;;;;;;;5032650;28;20022;-83
2022/10/21 05:18:16;;;;;;;5.03;3.75;;;;;;;;;;5032601;28;20382;-82
2022/10/21 05:20:42;;;;;;;5.32;3.72;;;;;;;;;;5029720;28;20402;-80
2022/10/21 05:23:09;;;;;;;4.72;3.55;;;;;;;;;;5032418;28;20033;-80
2022/10/21 05:25:35;;;;;;;11.30;4.10;;;;;;;;;;5031835;28;20029;-82
2022/10/21 05:28:01;;;;;;;7.03;3.92;;;;;;;;;;5031891;28;20032;-81
2022/10/21 05:30:27;;;;;;;4.72;3.60;;;;;;;;;;5031917;28;20068;-82
2022/10/21 05:32:53;;;;;;;4.22;3.45;;;;;;;;;;5032444;28;20021;-81
2022/10/21 05:35:19;;;;;;;7.82;3.63;;;;;;;;;;5032462;28;20032;-80
2022/10/21 05:37:45;;;;;;;7.28;4.00;;;;;;;;;;5032492;28;20036;-80
2022/10/21 05:40:12;;;;;;;5.47;3.90;;;;;;;;;;5033910;28;20466;-81
2022/10/21 05:42:38;;;;;;;7.72;4.30;;;;;;;;;;5024810;28;20383;-80
2022/10/21 05:45:04;;;;;;;9.27;4.05;;;;;;;;;;5035398;28;20025;-82
2022/10/21 05:47:30;;;;;;;7.68;3.90;;;;;;;;;;5044919;28;20025;-81
2022/10/21 05:49:56;;;;;;;7.07;4.35;;;;;;;;;;5033066;28;20072;-83
2022/10/21 05:52:23;;;;;;;6.18;3.97;;;;;;;;;;5030894;28;20153;-81
2022/10/21 05:54:49;;;;;;;5.10;3.75;;;;;;;;;;5029533;28;20044;-82
2022/10/21 05:57:15;;;;;;;5.55;3.75;;;;;;;;;;5021441;28;20068;-84
2022/10/21 05:59:41;;;;;;;5.78;3.88;;;;;;;;;;5030566;28;20467;-85
2022/10/21 06:02:08;;;;;;;7.05;3.47;;;;;;;;;;5027004;28;20033;-81
2022/10/21 06:04:34;;;;;;;6.13;4.05;;;;;;;;;;5026515;28;20049;-80
2022/10/21 06:07:00;;;;;;;8.35;4.25;;;;;;;;;;5023802;28;20030;-80
2022/10/21 06:09:27;;;;;;;5.20;4.20;;;;;;;;;;5018108;28;20332;-83
2022/10/21 06:11:56;;;;;;;9.05;4.90;;;;;;;;;;5036287;28;20119;-84
2022/10/21 06:14:23;;;;;;;6.90;4.13;;;;;;;;;;5036792;28;20030;-82
2022/10/21 06:16:49;;;;;;;11.77;5.45;;;;;;;;;;5039886;28;20025;-82
2022/10/21 06:19:15;;;;;;;8.40;5.10;;;;;;;;;;5033434;28;20048;-84
2022/10/21 06:21:41;;;;;;;7.50;4.68;;;;;;;;;;5032603;28;20045;-84
2022/10/21 06:24:08;;;;;;;7.95;5.28;;;;;;;;;;5036421;28;20021;-82
2022/10/21 06:26:34;;;;;;;12.50;4.55;;;;;;;;;;5027826;28;20084;-81
2022/10/21 06:29:00;;;;;;;8.27;4.38;;;;;;;;;;5038228;28;20029;-81
2022/10/21 06:31:26;;;;;;;11.45;5.53;;;;;;;;;;5034118;28;20022;-82
2022/10/21 06:33:52;;;;;;;5.30;4.50;;;;;;;;;;5038568;28;20052;-82
2022/10/21 06:36:18;;;;;;;4.20;3.75;;;;;;;;;;5035413;28;20026;-83
2022/10/21 06:38:44;;;;;;;6.47;4.70;;;;;;;;;;5032907;28;20569;-82
2022/10/21 06:41:11;;;;;;;9.75;5.00;;;;;;;;;;5036599;28;20116;-81
2022/10/21 06:43:38;;;;;;;7.53;5.32;;;;;;;;;;5038293;28;20080;-82
2022/10/21 06:46:08;;;;;;;8.88;5.20;;;;;;;;;;5025655;28;20100;-82
2022/10/21 06:48:35;;;;;;;7.07;5.32;;;;;;;;;;5026652;28;20054;-82
2022/10/21 06:51:02;;;;;;;9.23;5.50;;;;;;;;;;5031954;28;20037;-79
2022/10/21 06:53:28;;;;;;;6.47;4.47;;;;;;;;;;5041993;28;20029;-83
2022/10/21 06:56:05;;;;;;;6.15;4.50;;;;;;;;;;5040520;28;20788;-82
2022/10/21 06:58:31;;;;;;;9.77;5.55;;;;;;;;;;5040480;28;20022;-84
2022/10/21 07:00:58;;;;;;;8.68;5.95;;;;;;;;;;5041126;28;20037;-84
2022/10/21 07:03:24;;;;;;;10.07;5.63;;;;;;;;;;5047345;28;20056;-83
2022/10/21 07:05:57;;;;;;;10.48;6.30;;;;;;;;;;5026567;28;20057;-84
2022/10/21 07:08:25;;;;;;;7.00;5.68;;;;;;;;;;5035796;28;20033;-85
2022/10/21 07:10:51;;;;;;;10.70;5.35;;;;;;;;;;5040965;28;20081;-84
2022/10/21 07:13:18;;;;;;;10.05;6.03;;;;;;;;;;5028691;28;20037;-81
2022/10/21 07:15:44;;;;;;;10.90;5.90;;;;;;;;;;5046935;28;20041;-83
2022/10/21 07:18:11;;;;;;;8.10;5.05;;;;;;;;;;5050782;28;20021;-82
2022/10/21 07:20:37;;;;;;;10.60;6.22;;;;;;;;;;5052249;28;20040;-85
2022/10/21 07:23:03;;;;;;;11.05;5.57;;;;;;;;;;5041386;28;20037;-81
2022/10/21 07:25:29;;;;;;;9.52;5.38;;;;;;;;;;5040871;28;20026;-85
2022/10/21 07:27:57;;;;;;;9.02;5.72;;;;;;;;;;5047875;28;20022;-84
2022/10/21 07:30:23;;;;;;;15.10;6.68;;;;;;;;;;5045572;28;20029;-82
2022/10/21 07:32:53;;;;;;;7.40;5.53;;;;;;;;;;5026184;28;20039;-87
2022/10/21 07:35:19;;;;;;;15.18;5.40;;;;;;;;;;5036213;28;20473;-85
2022/10/21 07:37:46;;;;;;;10.30;5.97;;;;;;;;;;5033064;28;20037;-82
2022/10/21 07:40:13;;;;;;;10.10;5.90;;;;;;;;;;5047172;28;20096;-84
2022/10/21 07:42:39;;;;;;;7.53;6.07;;;;;;;;;;5046807;28;20002;-81
2022/10/21 07:45:05;;;;;;;14.13;6.90;;;;;;;;;;5049043;28;20018;-83
2022/10/21 07:47:32;;;;;;;7.88;5.90;;;;;;;;;;5043463;28;20021;-81
2022/10/21 07:49:58;;;;;;;9.75;6.05;;;;;;;;;;5041462;28;20049;-83
2022/10/21 07:52:24;;;;;;;13.52;6.47;;;;;;;;;;5040960;28;20036;-81
2022/10/21 07:54:50;;;;;;;9.10;5.72;;;;;;;;;;5037000;28;20124;-81
2022/10/21 07:57:16;;;;;;;9.52;5.85;;;;;;;;;;5029452;28;20025;-83
2022/10/21 07:59:42;;;;;;;9.38;5.93;;;;;;;;;;5042132;28;20093;-83
2022/10/21 08:02:15;;;;;;;11.35;5.20;;;;;;;;;;5039311;28;20014;-82
2022/10/21 08:04:41;;;;;;;9.52;5.60;;;;;;;;;;5039469;28;20567;-83
2022/10/21 08:07:07;;;;;;;7.72;5.25;;;;;;;;;;5039302;28;20105;-80
2022/10/21 08:09:34;;;;;;;8.65;5.80;;;;;;;;;;5045631;28;20040;-82
2022/10/21 08:12:00;;;;;;;10.23;7.68;;;;;;;;;;5042386;28;20044;-84
2022/10/21 08:14:26;;;;;;;13.57;6.43;;;;;;;;;;5044450;28;20036;-82
2022/10/21 08:16:53;;;;;;;11.00;6.47;;;;;;;;;;5038778;28;20057;-83
2022/10/21 08:19:22;;;;;;;10.73;7.15;;;;;;;;;;5045888;28;20032;-83
2022/10/21 08:21:49;;;;;;;11.93;6.55;;;;;;;;;;5039996;28;20057;-83
2022/10/21 08:24:15;;;;;;;7.80;6.18;;;;;;;;;;5047954;28;20021;-81
2022/10/21 08:26:41;;;;;;;12.88;6.63;;;;;;;;;;5043277;28;20026;-81
2022/10/21 08:29:08;;;;;;;11.95;6.95;;;;;;;;;;5040895;28;20033;-81
2022/10/21 08:31:34;;;;;;;11.52;6.90;;;;;;;;;;5034065;28;20028;-82
2022/10/21 08:34:00;;;;;;;15.52;6.68;;;;;;;;;;5047661;28;20040;-81
2022/10/21 08:36:27;;;;;;;11.50;6.15;;;;;;;;;;5035032;28;20099;-83
2022/10/21 08:38:53;;;;;;;10.52;7.07;;;;;;;;;;5034291;28;20038;-82
2022/10/21 08:41:28;;;;;;;9.65;6.60;;;;;;;;;;5039600;28;20044;-81
2022/10/21 08:44:13;;;;;;;12.00;6.75;;;;;;;;;;5036940;28;20033;-82
2022/10/21 08:46:46;;;;;;;11.75;6.25;;;;;;;;;;5035779;28;20038;-80
2022/10/21 08:49:22;;;;;;;9.88;6.65;;;;;;;;;;5037156;28;20072;-82
2022/10/21 08:51:55;;;;;;;8.15;6.95;;;;;;;;;;5042761;28;20073;-82
2022/10/21 08:54:28;;;;;;;14.25;7.25;;;;;;;;;;5037210;28;20033;-83
2022/10/21 08:56:58;;;;;;;12.98;7.93;;;;;;;;;;5039801;28;20028;-81
2022/10/21 08:59:24;;;;;;;11.55;6.85;;;;;;;;;;5038100;28;20046;-83
2022/10/21 09:01:54;;;;;;;8.90;7.15;;;;;;;;;;5036974;28;20026;-80
2022/10/21 09:04:32;;;;;;;12.63;6.93;;;;;;;;;;5039609;28;20022;-83
2022/10/21 09:07:18;;;;;;;11.88;6.63;;;;;;;;;;5026746;28;20036;-83
2022/10/21 09:09:44;;;;;;;8.98;6.32;;;;;;;;;;5028062;28;20082;-83
2022/10/21 09:12:23;;;;;;;11.55;6.95;;;;;;;;;;5023464;28;20034;-80
2022/10/21 09:14:56;;;;;;;11.13;6.65;;;;;;;;;;5030967;28;20043;-81
2022/10/21 09:17:31;;;;;;;9.23;6.07;;;;;;;;;;5035255;28;20795;-81
2022/10/21 09:20:00;;;;;;;10.98;7.38;;;;;;;;;;5021587;28;20033;-83
2022/10/21 09:22:47;;;;;;;9.65;7.22;;;;;;;;;;5038099;28;20010;-81
2022/10/21 09:25:13;;;;;;;;;;;;;;;;;;5039431;28;20024;-81
2022/10/21 09:27:40;;;;;;;8.85;7.28;;;;;;;;;;5041187;28;19952;-83
2022/10/21 09:30:06;;;;;;;10.45;7.90;;;;;;;;;;5022167;28;20081;-80
2022/10/21 09:32:35;;;;;;;8.60;6.75;;;;;;;;;;5021184;28;20080;-82
2022/10/21 09:35:23;;;;;;;12.70;7.78;;;;;;;;;;5037553;28;20038;-82
2022/10/21 09:37:49;;;;;;;8.50;6.88;;;;;;;;;;5039340;28;20125;-82
2022/10/21 09:40:17;;;;;;;8.55;7.22;;;;;;;;;;5036430;28;20475;-79
2022/10/21 09:42:43;;;;;;;;;;;;;;;;;;5039606;28;20038;-79
2022/10/21 09:45:17;;;;;;;8.38;6.47;;;;;;;;;;5039454;28;19912;-80
2022/10/21 09:47:44;;;;;;;10.63;7.13;;;;;;;;;;5036720;28;20033;-81
2022/10/21 09:50:14;;;;;;;9.13;6.80;;;;;;;;;;5041934;28;20583;-82
2022/10/21 09:52:44;;;;;;;8.38;6.75;;;;;;;;;;5026476;28;20262;-81
2022/10/21 09:55:13;;;;;;;15.25;7.70;;;;;;;;;;5042372;28;20067;-80
2022/10/21 09:57:51;;;;;;;8.23;7.05;;;;;;;;;;5042981;28;20048;-82
2022/10/21 10:00:17;;;;;;;9.52;6.65;;;;;;;;;;5041596;28;20029;-81
2022/10/21 10:02:44;;;;;;;8.25;6.43;;;;;;;;;;5045542;28;20224;-82
2022/10/21 10:05:35;;;;;;;10.15;6.47;;;;;;;;;;5048911;28;20041;-83
2022/10/21 10:08:18;;;;;;;10.30;7.07;;;;;;;;;;5037167;28;20076;-82
2022/10/21 10:10:45;;;;;;;8.30;6.72;;;;;;;;;;5049784;28;20005;-82
2022/10/21 10:13:14;;;;;;;8.20;6.63;;;;;;;;;;5051231;28;20097;-81
2022/10/21 10:15:40;;;;;;;6.95;6.28;;;;;;;;;;5049392;28;20060;-83
2022/10/21 10:18:18;;;;;;;10.73;7.85;;;;;;;;;;5049719;28;20030;-82
2022/10/21 10:20:46;;;;;;;8.68;6.05;;;;;;;;;;5049216;28;20040;-83
2022/10/21 10:23:18;;;;;;;9.45;8.02;;;;;;;;;;5052866;28;20029;-80
2022/10/21 10:25:51;;;;;;;9.38;6.35;;;;;;;;;;5044581;28;20042;-83
2022/10/21 10:28:24;;;;;;;9.15;7.68;;;;;;;;;;5044063;28;20025;-84
2022/10/21 10:30:52;;;;;;;10.77;6.68;;;;;;;;;;5040559;28;20360;-86
2022/10/21 10:33:23;;;;;;;10.30;6.80;;;;;;;;;;5038912;28;20021;-83
2022/10/21 10:35:52;;;;;;;13.55;7.47;;;;;;;;;;5038444;28;20044;-84
2022/10/21 10:38:19;;;;;;;9.25;6.60;;;;;;;;;;5028973;28;20387;-82
2022/10/21 10:40:45;;;;;;;8.55;7.15;;;;;;;;;;5031367;28;20486;-85
2022/10/21 10:43:21;;;;;;;13.25;7.60;;;;;;;;;;5036509;28;20116;-84
2022/10/21 10:45:58;;;;;;;10.05;7.15;;;;;;;;;;5021522;28;20587;-83
2022/10/21 10:48:27;;;;;;;10.10;6.18;;;;;;;;;;5030652;28;20033;-82
2022/10/21 10:50:54;;;;;;;7.90;5.90;;;;;;;;;;5039907;28;20153;-82
2022/10/21 10:53:39;;;;;;;6.50;5.60;;;;;;;;;;5036361;28;20022;-81
2022/10/21 10:56:17;;;;;;;6.70;5.55;;;;;;;;;;5034289;28;20433;-81
2022/10/21 10:58:47;;;;;;;5.95;5.13;;;;;;;;;;5038413;28;20029;-81
2022/10/21 11:01:16;;;;;;;6.75;5.60;;;;;;;;;;5044299;28;20025;-81
2022/10/21 11:03:45;;;;;;;6.85;5.55;;;;;;;;;;5043426;28;20029;-83
2022/10/21 11:06:18;;;;;;;9.90;6.10;;;;;;;;;;5043527;28;20018;-82
2022/10/21 11:08:54;;;;;;;9.60;5.57;;;;;;;;;;5041536;28;20033;-83
2022/10/21 11:11:29;;;;;;;8.85;5.72;;;;;;;;;;5054665;28;20048;-82
2022/10/21 11:13:56;;;;;;;27.02;20.67;;;;;;;;;;5043437;28;20132;-83
2022/10/21 11:16:28;;;;;;;9.52;6.25;;;;;;;;;;5037201;28;20533;-83
2022/10/21 11:19:14;;;;;;;7.72;4.93;;;;;;;;;;5039676;28;20037;-81
2022/10/21 11:21:48;;;;;;;9.25;5.43;;;;;;;;;;5041707;28;20102;-83
2022/10/21 11:24:14;;;;;;;9.93;6.05;;;;;;;;;;5037573;28;20085;-82
2022/10/21 11:26:40;;;;;;;9.52;5.50;;;;;;;;;;5037308;28;20075;-84
2022/10/21 11:29:22;;;;;;;10.18;5.35;;;;;;;;;;5035643;28;20025;-84
2022/10/21 11:32:03;;;;;;;5.32;4.82;;;;;;;;;;5035613;28;20476;-86
2022/10/21 11:34:48;;;;;;;7.70;5.65;;;;;;;;;;5036063;28;20025;-81
2022/10/21 11:37:14;;;;;;;9.60;5.88;;;;;;;;;;5031775;28;20025;-82
2022/10/21 11:39:40;;;;;;;6.30;5.10;;;;;;;;;;5037442;28;20116;-80
2022/10/21 11:42:12;;;;;;;8.68;5.65;;;;;;;;;;5043554;28;20036;-80
2022/10/21 11:44:44;;;;;;;8.43;5.28;;;;;;;;;;5037490;28;20029;-82
2022/10/21 11:47:16;;;;;;;7.57;4.75;;;;;;;;;;5037973;28;20018;-82
2022/10/21 11:49:42;;;;;;;6.95;5.13;;;;;;;;;;5044673;28;20080;-82
2022/10/21 11:52:17;;;;;;;6.03;4.38;;;;;;;;;;5036446;28;20363;-84
2022/10/21 11:55:06;;;;;;;5.93;4.25;;;;;;;;;;5042692;28;20037;-81
2022/10/21 11:57:39;;;;;;;6.80;4.90;;;;;;;;;;5007990;28;20060;-84
2022/10/21 12:00:14;;;;;;;7.32;4.45;;;;;;;;;;5037021;28;20398;-85
2022/10/21 12:02:41;;;;;;;8.05;4.45;;;;;;;;;;5035318;28;20018;-82
2022/10/21 12:05:14;;;;;;;10.50;6.75;;;;;;;;;;5035152;28;20025;-83
2022/10/21 12:07:46;;;;;;;8.65;5.28;;;;;;;;;;5037029;28;20022;-83
2022/10/21 12:10:18;;;;;;;7.55;5.05;;;;;;;;;;5039118;28;20109;-83
2022/10/21 12:12:46;;;;;;;9.70;5.55;;;;;;;;;;5037169;28;20025;-82
2022/10/21 12:15:23;;;;;;;7.07;4.53;;;;;;;;;;5038488;28;20033;-81
2022/10/21 12:17:49;;;;;;;;;;;;;;;;;;5036523;28;20418;-81
2022/10/21 12:20:20;;;;;;;6.07;4.85;;;;;;;;;;5037782;28;19940;-81
2022/10/21 12:22:47;;;;;;;8.50;4.55;;;;;;;;;;5039043;28;20390;-82
2022/10/21 12:25:16;;;;;;;8.02;4.80;;;;;;;;;;5037823;28;20469;-82
2022/10/21 12:27:47;;;;;;;9.23;5.40;;;;;;;;;;5042099;28;20017;-81
2022/10/21 12:30:20;;;;;;;6.90;5.03;;;;;;;;;;5035628;28;20034;-81
2022/10/21 12:33:09;;;;;;;9.68;5.13;;;;;;;;;;5040239;28;20091;-80
2022/10/21 12:35:44;;;;;;;5.88;4.40;;;;;;;;;;5003898;28;20034;-81
2022/10/21 12:38:21;;;;;;;5.03;3.85;;;;;;;;;;4999664;28;20515;-80
2022/10/21 12:40:47;;;;;;;10.43;4.60;;;;;;;;;;4993686;28;20491;-79
2022/10/21 12:43:16;;;;;;;8.32;5.68;;;;;;;;;;4993759;28;20375;-80
2022/10/21 12:45:42;;;;;;;9.82;5.03;;;;;;;;;;4994388;28;20026;-80
2022/10/21 12:48:27;;;;;;;6.15;4.85;;;;;;;;;;4994184;28;20026;-78
2022/10/21 12:50:59;;;;;;;8.50;6.20;;;;;;;;;;4991087;28;20054;-80
2022/10/21 12:53:37;;;;;;;8.20;5.43;;;;;;;;;;4994285;28;20038;-82
2022/10/21 12:56:04;;;;;;;10.38;4.80;;;;;;;;;;4993697;28;20042;-81
2022/10/21 12:59:01;;;;;;;10.20;6.03;;;;;;;;;;4992868;28;20491;-80
2022/10/21 13:01:37;;;;;;;7.50;4.90;;;;;;;;;;4964237;28;20125;-79
2022/10/21 13:04:04;;;;;;;8.70;4.80;;;;;;;;;;4993377;28;20114;-80
2022/10/21 13:06:53;;;;;;;10.02;6.22;;;;;;;;;;4996847;28;20046;-83
2022/10/21 13:09:37;;;;;;;11.23;7.18;;;;;;;;;;4998732;28;20023;-82
2022/10/21 13:12:12;;;;;;;8.18;6.22;;;;;;;;;;5015379;28;20045;-82
2022/10/21 13:14:48;;;;;;;8.57;5.25;;;;;;;;;;5046677;28;20037;-82
2022/10/21 13:17:20;;;;;;;9.00;6.00;;;;;;;;;;5046593;28;20022;-83
2022/10/21 13:19:49;;;;;;;7.80;5.72;;;;;;;;;;5044924;28;20021;-82
2022/10/21 13:22:21;;;;;;;7.15;5.43;;;;;;;;;;5048114;28;20115;-80
2022/10/21 13:24:48;;;;;;;10.80;5.40;;;;;;;;;;5046433;28;20026;-81
2022/10/21 13:27:26;;;;;;;11.02;5.60;;;;;;;;;;5051129;28;20025;-81
2022/10/21 13:29:53;;;;;;;13.25;5.90;;;;;;;;;;5048984;28;20045;-81
2022/10/21 13:32:33;;;;;;;10.82;5.05;;;;;;;;;;5042166;28;20076;-80
2022/10/21 13:35:09;;;;;;;7.88;4.97;;;;;;;;;;5045918;28;20085;-85
2022/10/21 13:37:40;;;;;;;9.88;5.90;;;;;;;;;;5040309;28;20439;-81
2022/10/21 13:40:18;;;;;;;9.70;6.55;;;;;;;;;;5045657;28;20051;-79
2022/10/21 13:42:48;;;;;;;8.98;5.50;;;;;;;;;;5041108;28;20077;-83
2022/10/21 13:45:34;;;;;;;7.53;4.85;;;;;;;;;;5041249;28;20495;-82
2022/10/21 13:48:02;;;;;;;15.00;6.68;;;;;;;;;;5040833;28;20036;-82
2022/10/21 13:50:29;;;;;;;;;;;;;;;;;;5039686;28;20050;-82
2022/10/21 13:52:55;;;;;;;8.27;5.63;;;;;;;;;;5033567;28;19927;-82
2022/10/21 13:55:23;;;;;;;8.60;5.68;;;;;;;;;;5039813;28;20033;-80
2022/10/21 13:57:56;;;;;;;10.80;5.28;;;;;;;;;;5041475;28;20028;-81
2022/10/21 14:00:25;;;;;;;9.50;5.38;;;;;;;;;;5042711;28;20021;-81
2022/10/21 14:02:52;;;;;;;5.30;4.22;;;;;;;;;;5044253;28;20379;-81
2022/10/21 14:05:29;;;;;;;5.63;4.32;;;;;;;;;;5042916;28;20043;-81
2022/10/21 14:07:55;;;;;;;12.43;4.97;;;;;;;;;;5044583;28;20036;-80
2022/10/21 14:10:22;;;;;;;7.80;5.13;;;;;;;;;;5044730;28;20071;-83
2022/10/21 14:12:48;;;;;;;8.52;4.32;;;;;;;;;;5042338;28;20041;-81
2022/10/21 14:15:20;;;;;;;6.85;4.20;;;;;;;;;;5030886;28;20368;-81
2022/10/21 14:17:56;;;;;;;8.50;4.72;;;;;;;;;;5041390;28;20072;-82
2022/10/21 14:20:41;;;;;;;9.15;4.38;;;;;;;;;;5044168;28;20047;-81
2022/10/21 14:23:16;;;;;;;9.98;5.25;;;;;;;;;;5041065;28;20447;-80
2022/10/21 14:25:43;;;;;;;5.43;3.92;;;;;;;;;;5039595;28;20435;-79
2022/10/21 14:28:11;;;;;;;12.60;5.47;;;;;;;;;;5038972;28;20022;-83
2022/10/21 14:30:38;;;;;;;21.25;13.95;;;;;;;;;;5030063;28;20029;-80
2022/10/21 14:33:13;;;;;;;9.60;5.35;;;;;;;;;;5036998;28;20030;-80
2022/10/21 14:35:40;;;;;;;7.32;4.90;;;;;;;;;;5039711;28;20033;-81
2022/10/21 14:38:24;;;;;;;11.63;5.00;;;;;;;;;;5037654;28;20530;-81
2022/10/21 14:40:56;;;;;;;17.10;8.48;;;;;;;;;;5030156;28;20034;-81
2022/10/21 14:43:30;;;;;;;13.57;5.88;;;;;;;;;;5037238;28;20026;-80
2022/10/21 14:46:05;;;;;;;15.30;5.97;;;;;;;;;;5038610;28;20367;-81
2022/10/21 14:48:31;;;;;;;11.23;7.60;;;;;;;;;;5026349;28;20026;-79
2022/10/21 14:51:03;;;;;;;12.55;6.47;;;;;;;;;;5041201;28;20074;-80
2022/10/21 14:53:34;;;;;;;14.05;5.88;;;;;;;;;;5040397;28;20040;-81
2022/10/21 14:56:01;;;;;;;14.43;6.60;;;;;;;;;;5040071;28;20052;-80
2022/10/21 14:58:29;;;;;;;13.25;6.45;;;;;;;;;;5040596;28;20809;-81